Terminal Aerodrome Forecast
Issued by NWS

Home | Current Version | Previous Version | Text Only | Print | Product List | Glossary On
Versions: 1 2 3 4 5 6 7 8 9 10 11 12 13 14 15
124
FTUS44 KBMX 242340
TAFMGM
TAF
KMGM 242340Z 2500/2524 22006KT P6SM VCSH SCT045 BKN080 OVC120
     FM250200 24003KT P6SM OVC120
     FM250800 25003KT P6SM OVC015
     FM251100 26003KT 4SM BR OVC004
     FM251500 28004KT 5SM BR OVC015
     FM251700 28005KT P6SM VCSH BKN040 PROB30 2518/2522 TSRA
      BKN050CB=

USA.gov is the U.S. government's official web portal to all federal, state and local government web resources and services.